Terminal Aerodrome Forecast
Issued by NWS Topeka, KS

Home | Current Version | Previous Version | Graphics & Text | Print | Product List | Glossary On
Versions: 1 2 3 4 5 6 7 8 9 10 11 12 13 14 15 16 17 18 19 20 21 22 23 24 25 26 27 28
000
FTUS43 KTOP 271900 AAC
TAFTOP
TAF AMD
KTOP 271900Z 2719/2818 21012G22KT P6SM -TSRA BKN035CB
     FM272100 24012G22KT P6SM BKN035
     FM280000 26007KT P6SM SCT040 SCT100=

USA.gov is the U.S. government's official web portal to all federal, state and local government web resources and services.